Terminal Aerodrome Forecast
Issued by NWS

Home | Current Version | Previous Version | Text Only | Print | Product List | Glossary On
Versions: 1 2 3 4 5 6 7 8 9 10 11 12 13 14 15 16
000
FTUS44 KCRP 251204 AAA
TAFLRD
TAF AMD
KLRD 251204Z 2512/2612 14008KT P6SM OVC008
     FM251400 19008KT P6SM FEW025
     FM251900 28007KT P6SM SKC
     FM260100 15011KT P6SM SKC
     FM261000 25010KT P6SM FEW040=

USA.gov is the U.S. government's official web portal to all federal, state and local government web resources and services.